Time;durP1;ratioP1;P1;durP2;ratioP2;P2;SDS_P1;SDS_P2;PMS_P1;PMS_P2;Temp;Humidity;BMP_temperature;BMP_pressure;BME280_temperature;BME280_humidity;BME280_pressure;Samples;Min_cycle;Max_cycle;Signal;HPM_P1;HPM_P2
2021/04/14 00:02:05;;;;;;;1.98;1.83;;;18.90;26.30;;;;;;5026892;28;20033;-34
2021/04/14 00:04:32;;;;;;;2.42;2.20;;;18.90;26.30;;;;;;5023889;28;20026;-37
2021/04/14 00:07:00;;;;;;;1.92;1.70;;;18.90;26.20;;;;;;5026990;28;20546;-38
2021/04/14 00:09:26;;;;;;;1.90;1.80;;;18.90;26.30;;;;;;5032941;28;20090;-35
2021/04/14 00:11:52;;;;;;;2.05;1.83;;;18.90;26.30;;;;;;5027928;28;20197;-37
2021/04/14 00:14:18;;;;;;;1.77;1.67;;;18.90;26.30;;;;;;5034072;28;20186;-38
2021/04/14 00:16:44;;;;;;;2.03;1.70;;;18.80;26.30;;;;;;5023202;28;20459;-41
2021/04/14 00:19:09;;;;;;;1.88;1.75;;;18.90;26.30;;;;;;5025164;28;20061;-35
2021/04/14 00:21:35;;;;;;;2.50;1.90;;;18.80;26.30;;;;;;5029254;28;20041;-34
2021/04/14 00:24:01;;;;;;;1.60;1.50;;;18.80;26.30;;;;;;5035578;28;20063;-36
2021/04/14 00:26:27;;;;;;;1.88;1.65;;;18.90;26.40;;;;;;5026690;28;20083;-38
2021/04/14 00:28:53;;;;;;;1.80;1.70;;;18.80;26.40;;;;;;5029172;28;20040;-35
2021/04/14 00:31:19;;;;;;;1.77;1.67;;;18.80;26.40;;;;;;5034837;28;20033;-34
2021/04/14 00:33:46;;;;;;;1.90;1.80;;;18.80;26.40;;;;;;5058982;28;20033;-39
2021/04/14 00:36:11;;;;;;;1.88;1.70;;;18.90;27.10;;;;;;5055134;28;20033;-38
2021/04/14 00:38:38;;;;;;;1.70;1.60;;;18.80;26.30;;;;;;5057142;28;20040;-35
2021/04/14 00:41:11;;;;;;;2.10;1.90;;;18.80;27.10;;;;;;5058804;28;20096;-39
2021/04/14 00:43:38;;;;;;;1.80;1.70;;;18.80;26.30;;;;;;5045139;28;20093;-35
2021/04/14 00:46:06;;;;;;;1.90;1.70;;;18.80;26.30;;;;;;5065327;28;20032;-38
2021/04/14 00:48:31;;;;;;;1.98;1.80;;;18.80;26.40;;;;;;5054175;28;20542;-34
2021/04/14 00:50:59;;;;;;;2.10;1.95;;;18.80;26.30;;;;;;5056991;28;20037;-37
2021/04/14 00:53:24;;;;;;;2.43;1.83;;;18.70;26.40;;;;;;5063755;28;20021;-43
2021/04/14 00:55:50;;;;;;;1.80;1.70;;;18.80;26.40;;;;;;5056416;28;20046;-34
2021/04/14 00:58:16;;;;;;;1.85;1.70;;;18.70;26.40;;;;;;5055586;28;20033;-34
2021/04/14 01:00:45;;;;;;;1.75;1.65;;;18.80;26.40;;;;;;5044021;28;20128;-36
2021/04/14 01:03:21;;;;;;;2.10;1.90;;;18.80;26.40;;;;;;5028808;28;20017;-34
2021/04/14 01:05:49;;;;;;;2.65;1.80;;;18.80;26.40;;;;;;5029612;28;20018;-32
2021/04/14 01:08:16;;;;;;;2.05;1.85;;;18.90;26.30;;;;;;5025883;28;20687;-36
2021/04/14 01:10:42;;;;;;;1.75;1.63;;;18.80;26.20;;;;;;5025379;28;20095;-40
2021/04/14 01:13:08;;;;;;;1.70;1.60;;;18.90;26.30;;;;;;5038491;28;20025;-36
2021/04/14 01:15:36;;;;;;;2.08;1.88;;;18.90;26.20;;;;;;5028152;28;20037;-35
2021/04/14 01:18:02;;;;;;;1.90;1.80;;;18.80;26.30;;;;;;5024288;28;20578;-37
2021/04/14 01:20:28;;;;;;;1.80;1.70;;;18.90;26.20;;;;;;5030698;28;20024;-37
2021/04/14 01:22:54;;;;;;;2.00;1.90;;;18.90;26.20;;;;;;5043498;28;20025;-41
2021/04/14 01:25:27;;;;;;;1.70;1.60;;;18.80;26.20;;;;;;5032747;28;20021;-34
2021/04/14 01:27:53;;;;;;;1.92;1.83;;;18.80;26.30;;;;;;5039041;28;20582;-37
2021/04/14 01:30:24;;;;;;;1.77;1.67;;;18.80;26.20;;;;;;5034636;28;20031;-37
2021/04/14 01:32:50;;;;;;;2.05;1.90;;;18.80;26.30;;;;;;5038162;28;20054;-38
2021/04/14 01:35:17;;;;;;;2.05;1.73;;;18.80;26.20;;;;;;5028651;28;20093;-39
2021/04/14 01:37:43;;;;;;;2.05;1.85;;;18.80;26.40;;;;;;5032554;28;20017;-35
2021/04/14 01:40:11;;;;;;;1.95;1.80;;;18.70;26.20;;;;;;5027844;28;20055;-37
2021/04/14 01:42:37;;;;;;;2.05;1.80;;;18.80;26.20;;;;;;5043360;28;20059;-38
2021/04/14 01:45:05;;;;;;;1.80;1.70;;;18.80;26.30;;;;;;5042059;28;20032;-35
2021/04/14 01:47:31;;;;;;;2.60;1.88;;;18.80;26.30;;;;;;5031845;28;20124;-36
2021/04/14 01:49:56;;;;;;;1.80;1.70;;;18.80;26.30;;;;;;5036006;28;20112;-37
2021/04/14 01:52:22;;;;;;;1.90;1.80;;;18.80;26.30;;;;;;5035156;28;20549;-35
2021/04/14 01:54:47;;;;;;;1.88;1.77;;;18.80;26.30;;;;;;5038252;28;20033;-36
2021/04/14 01:57:13;;;;;;;2.20;2.00;;;18.80;26.30;;;;;;5033119;28;20079;-38
2021/04/14 01:59:39;;;;;;;1.95;1.80;;;18.80;26.30;;;;;;5031195;28;20025;-40
2021/04/14 02:02:05;;;;;;;2.17;1.98;;;18.80;26.20;;;;;;5032982;28;20511;-36
2021/04/14 02:04:31;;;;;;;2.53;2.05;;;18.80;26.20;;;;;;5033973;28;20086;-37
2021/04/14 02:06:56;;;;;;;2.22;1.75;;;18.80;26.20;;;;;;5039307;28;20487;-35
2021/04/14 02:09:22;;;;;;;2.20;2.00;;;18.80;26.20;;;;;;5041598;28;20089;-35
2021/04/14 02:11:47;;;;;;;1.80;1.70;;;18.70;26.20;;;;;;5042422;28;20514;-37
2021/04/14 02:14:13;;;;;;;2.00;1.90;;;18.80;26.30;;;;;;5022982;28;20025;-34
2021/04/14 02:16:39;;;;;;;2.00;1.90;;;18.80;26.20;;;;;;5039004;28;20104;-35
2021/04/14 02:19:05;;;;;;;1.90;1.80;;;18.80;26.20;;;;;;5039931;28;20029;-38
2021/04/14 02:21:30;;;;;;;2.55;1.98;;;18.90;26.10;;;;;;5039798;28;20542;-37
2021/04/14 02:23:56;;;;;;;2.00;1.90;;;18.80;26.10;;;;;;5037663;28;20034;-36
2021/04/14 02:26:23;;;;;;;2.28;2.08;;;18.90;26.20;;;;;;5024662;28;20025;-38
2021/04/14 02:28:50;;;;;;;2.20;2.00;;;18.70;26.10;;;;;;5035494;28;20028;-38
2021/04/14 02:31:18;;;;;;;2.10;2.00;;;18.80;26.20;;;;;;5044496;28;20040;-35
2021/04/14 02:33:44;;;;;;;1.98;1.80;;;18.70;27.00;;;;;;5031162;28;20034;-37
2021/04/14 02:36:10;;;;;;;1.95;1.85;;;18.80;26.20;;;;;;5030865;28;20032;-36
2021/04/14 02:38:36;;;;;;;2.20;2.00;;;18.80;26.20;;;;;;5031527;28;20035;-36
2021/04/14 02:41:04;;;;;;;1.98;1.80;;;18.80;26.20;;;;;;5043956;28;20100;-35
2021/04/14 02:43:30;;;;;;;1.92;1.83;;;18.80;26.20;;;;;;5033907;28;20488;-38
2021/04/14 02:45:55;;;;;;;2.58;1.90;;;18.70;26.80;;;;;;5033818;28;20021;-38
2021/04/14 02:48:21;;;;;;;1.73;1.60;;;18.70;26.10;;;;;;5042527;28;20476;-37
2021/04/14 02:50:47;;;;;;;1.80;1.70;;;18.70;26.20;;;;;;5037130;28;20029;-36
2021/04/14 02:53:12;;;;;;;1.90;1.80;;;18.80;26.10;;;;;;5038605;28;20025;-36
2021/04/14 02:55:39;;;;;;;1.92;1.83;;;18.80;26.10;;;;;;5028029;28;20067;-34
2021/04/14 02:58:05;;;;;;;1.80;1.70;;;18.80;26.10;;;;;;5034034;28;20547;-40
2021/04/14 03:00:31;;;;;;;2.28;1.88;;;18.80;26.00;;;;;;5031172;28;20029;-34
2021/04/14 03:02:57;;;;;;;2.10;1.90;;;18.70;26.00;;;;;;5039835;28;20071;-37
2021/04/14 03:05:28;;;;;;;1.75;1.55;;;18.70;26.10;;;;;;5020904;28;20033;-41
2021/04/14 03:07:54;;;;;;;1.75;1.65;;;18.70;26.10;;;;;;5035553;28;20656;-38
2021/04/14 03:10:20;;;;;;;2.00;1.90;;;18.70;26.10;;;;;;5036630;28;20037;-35
2021/04/14 03:12:46;;;;;;;2.03;1.70;;;18.70;26.10;;;;;;5036619;28;20092;-36
2021/04/14 03:15:13;;;;;;;2.00;1.90;;;18.70;26.10;;;;;;5026044;28;20051;-37
2021/04/14 03:17:39;;;;;;;1.88;1.75;;;18.60;26.20;;;;;;5020768;28;20021;-34
2021/04/14 03:20:06;;;;;;;1.90;1.70;;;18.60;26.10;;;;;;5042799;28;20099;-36
2021/04/14 03:22:32;;;;;;;1.92;1.83;;;18.60;26.20;;;;;;5028360;28;20257;-33
2021/04/14 03:24:58;;;;;;;2.00;1.80;;;18.50;26.10;;;;;;5034283;28;20028;-37
2021/04/14 03:27:24;;;;;;;2.00;1.90;;;18.60;26.20;;;;;;5030121;28;20040;-38
2021/04/14 03:29:49;;;;;;;2.00;1.80;;;18.60;26.30;;;;;;5042147;28;20029;-34
2021/04/14 03:32:15;;;;;;;2.10;1.90;;;18.50;26.20;;;;;;5037455;28;20041;-39
2021/04/14 03:34:40;;;;;;;2.10;1.90;;;18.50;26.20;;;;;;5037991;28;20056;-34
2021/04/14 03:37:06;;;;;;;1.90;1.80;;;18.50;26.30;;;;;;5036066;28;20031;-34
2021/04/14 03:39:32;;;;;;;2.10;2.00;;;18.50;26.30;;;;;;5030480;28;20047;-35
2021/04/14 03:41:57;;;;;;;2.13;1.90;;;18.50;26.30;;;;;;5041821;28;20017;-38
2021/04/14 03:44:24;;;;;;;2.00;1.90;;;18.50;26.30;;;;;;5035037;28;20038;-34
2021/04/14 03:46:49;;;;;;;1.85;1.73;;;18.50;26.20;;;;;;5048893;28;20017;-35
2021/04/14 03:49:15;;;;;;;2.13;1.80;;;18.40;26.20;;;;;;5037140;28;20025;-37
2021/04/14 03:51:41;;;;;;;2.38;2.17;;;18.40;26.20;;;;;;5028981;28;20063;-35
2021/04/14 03:54:06;;;;;;;2.00;1.90;;;18.50;26.20;;;;;;5034281;28;20029;-42
2021/04/14 03:56:32;;;;;;;2.10;2.00;;;18.50;26.20;;;;;;5037036;28;20484;-34
2021/04/14 03:58:58;;;;;;;2.10;1.90;;;18.50;26.20;;;;;;5042072;28;20113;-35
2021/04/14 04:01:31;;;;;;;2.00;1.77;;;18.40;26.20;;;;;;5029901;28;20033;-33
2021/04/14 04:03:58;;;;;;;2.28;2.08;;;18.40;26.20;;;;;;5036849;28;20113;-41
2021/04/14 04:06:24;;;;;;;1.90;1.80;;;18.50;26.10;;;;;;5016618;28;20444;-38
2021/04/14 04:08:49;;;;;;;2.08;1.90;;;18.50;26.10;;;;;;5038636;28;20472;-38
2021/04/14 04:11:16;;;;;;;1.88;1.77;;;18.50;26.10;;;;;;5036572;28;20047;-35
2021/04/14 04:13:42;;;;;;;1.98;1.88;;;18.50;26.20;;;;;;5035173;28;20187;-38
2021/04/14 04:16:08;;;;;;;2.85;2.10;;;18.40;26.20;;;;;;5036826;28;20396;-35
2021/04/14 04:18:36;;;;;;;2.15;1.95;;;18.40;26.20;;;;;;5032075;28;20033;-36
2021/04/14 04:21:02;;;;;;;2.00;1.90;;;18.40;26.20;;;;;;5026607;28;20022;-39
2021/04/14 04:23:28;;;;;;;1.90;1.80;;;18.50;26.20;;;;;;5027730;28;20025;-36
2021/04/14 04:25:53;;;;;;;2.10;1.85;;;18.40;26.20;;;;;;5032522;28;20101;-37
2021/04/14 04:28:20;;;;;;;2.03;1.83;;;18.50;26.10;;;;;;5029741;28;20033;-35
2021/04/14 04:30:46;;;;;;;1.90;1.80;;;18.40;26.10;;;;;;5033326;28;20171;-36
2021/04/14 04:33:12;;;;;;;2.33;1.90;;;18.50;26.10;;;;;;5040241;28;20116;-39
2021/04/14 04:35:38;;;;;;;1.90;1.80;;;18.50;26.00;;;;;;5038561;28;20055;-38
2021/04/14 04:38:04;;;;;;;2.58;1.90;;;18.50;26.00;;;;;;5042796;28;20480;-40
2021/04/14 04:40:30;;;;;;;2.35;1.90;;;18.50;26.10;;;;;;5028996;28;20033;-39
2021/04/14 04:42:57;;;;;;;2.85;1.90;;;18.50;26.00;;;;;;5029275;28;20024;-35
2021/04/14 04:45:26;;;;;;;2.20;2.00;;;18.60;26.00;;;;;;5026827;28;20396;-37
2021/04/14 04:47:52;;;;;;;1.83;1.67;;;18.50;26.00;;;;;;5031926;28;20036;-35
2021/04/14 04:50:19;;;;;;;1.90;1.80;;;18.40;26.00;;;;;;5029855;28;20045;-34
2021/04/14 04:52:46;;;;;;;1.98;1.85;;;18.50;25.90;;;;;;5026297;28;20055;-39
2021/04/14 04:55:12;;;;;;;2.30;2.00;;;18.50;25.90;;;;;;5030845;28;20131;-34
2021/04/14 04:57:38;;;;;;;3.47;2.00;;;18.60;25.90;;;;;;5032944;28;20033;-35
2021/04/14 05:00:06;;;;;;;2.20;1.98;;;18.50;25.90;;;;;;5030408;28;20060;-35
2021/04/14 05:02:32;;;;;;;2.25;2.05;;;18.60;25.90;;;;;;5039704;28;20042;-36
2021/04/14 05:04:58;;;;;;;2.00;1.90;;;18.50;25.80;;;;;;5029075;28;20111;-37
2021/04/14 05:07:23;;;;;;;2.20;2.00;;;18.60;26.00;;;;;;5023699;28;20026;-40
2021/04/14 05:09:49;;;;;;;2.28;2.08;;;18.50;25.80;;;;;;5035575;28;20575;-38
2021/04/14 05:12:15;;;;;;;2.35;2.15;;;18.50;25.90;;;;;;5034901;28;20029;-35
2021/04/14 05:14:40;;;;;;;2.47;2.10;;;18.60;25.80;;;;;;5031672;28;20052;-35
2021/04/14 05:17:06;;;;;;;2.30;2.10;;;18.60;25.80;;;;;;5019795;28;20083;-34
2021/04/14 05:19:32;;;;;;;2.70;2.30;;;18.50;25.80;;;;;;5026186;28;20029;-34
2021/04/14 05:21:57;;;;;;;2.35;2.17;;;18.60;25.80;;;;;;5024740;28;20021;-37
2021/04/14 05:24:23;;;;;;;2.60;2.40;;;18.60;25.80;;;;;;5036208;28;20020;-35
2021/04/14 05:26:49;;;;;;;2.60;2.40;;;18.60;25.80;;;;;;5040202;28;20025;-39
2021/04/14 05:29:14;;;;;;;2.75;2.45;;;18.60;25.80;;;;;;5033084;28;20566;-35
2021/04/14 05:31:41;;;;;;;2.55;2.35;;;18.50;25.90;;;;;;5027284;28;20041;-37
2021/04/14 05:34:07;;;;;;;3.22;2.50;;;18.60;25.90;;;;;;5031888;28;20025;-35
2021/04/14 05:36:33;;;;;;;2.88;2.50;;;18.60;25.80;;;;;;5026545;28;20025;-33
2021/04/14 05:38:59;;;;;;;2.67;2.47;;;18.60;25.80;;;;;;5030291;28;20070;-36
2021/04/14 05:41:25;;;;;;;2.63;2.42;;;18.60;25.90;;;;;;5022939;28;20545;-43
2021/04/14 05:43:51;;;;;;;2.80;2.50;;;18.60;25.80;;;;;;5024326;28;20028;-34
2021/04/14 05:46:19;;;;;;;3.55;2.50;;;18.60;25.80;;;;;;5022032;28;20022;-34
2021/04/14 05:48:47;;;;;;;2.60;2.40;;;18.60;25.80;;;;;;5030183;28;20095;-38
2021/04/14 05:51:14;;;;;;;;;;;18.60;25.90;;;;;;5025155;28;20052;-37
2021/04/14 05:53:40;;;;;;;2.72;2.40;;;18.60;25.90;;;;;;5019020;28;20322;-40
2021/04/14 05:56:08;;;;;;;2.70;2.50;;;18.50;25.90;;;;;;5019924;28;20021;-36
2021/04/14 05:58:34;;;;;;;2.47;2.28;;;18.50;25.90;;;;;;5020084;28;20026;-37
2021/04/14 06:01:01;;;;;;;2.55;2.35;;;18.50;25.90;;;;;;5032354;28;20059;-35
2021/04/14 06:03:26;;;;;;;2.85;2.63;;;18.50;26.00;;;;;;5028588;28;20024;-41
2021/04/14 06:05:56;;;;;;;3.00;2.70;;;18.50;26.00;;;;;;5020307;28;20129;-35
2021/04/14 06:08:22;;;;;;;2.55;2.35;;;18.60;26.00;;;;;;5027123;28;20079;-38
2021/04/14 06:10:47;;;;;;;3.10;2.80;;;18.50;26.00;;;;;;5021675;28;20504;-36
2021/04/14 06:13:13;;;;;;;2.80;2.53;;;18.50;26.00;;;;;;5019780;28;20461;-35
2021/04/14 06:15:39;;;;;;;2.83;2.63;;;18.40;26.00;;;;;;5020495;28;20029;-35
2021/04/14 06:18:05;;;;;;;2.75;2.53;;;18.50;26.00;;;;;;5018997;28;20025;-37
2021/04/14 06:20:33;;;;;;;2.92;2.70;;;18.50;26.00;;;;;;5019935;28;20132;-37
2021/04/14 06:23:01;;;;;;;2.90;2.70;;;18.60;25.90;;;;;;5023096;28;20144;-37
2021/04/14 06:25:30;;;;;;;2.95;2.75;;;18.60;25.90;;;;;;5020625;28;20030;-38
2021/04/14 06:30:25;;;;;;;2.83;2.63;;;18.60;25.90;;;;;;5028415;28;20096;-43
2021/04/14 06:32:51;;;;;;;3.30;3.00;;;18.70;25.80;;;;;;5026753;28;20030;-34
2021/04/14 06:35:18;;;;;;;2.83;2.53;;;18.80;25.80;;;;;;5009182;28;20033;-35
2021/04/14 06:37:44;;;;;;;3.50;2.65;;;19.00;25.60;;;;;;5005009;28;20570;-41
2021/04/14 06:42:52;;;;;;;2.92;2.50;;;18.90;25.60;;;;;;5006796;28;20021;-39
2021/04/14 06:45:27;;;;;;;2.78;2.58;;;19.00;25.60;;;;;;5004465;28;20033;-35
2021/04/14 06:47:59;;;;;;;2.85;2.58;;;19.00;25.60;;;;;;5006218;28;20029;-37
2021/04/14 06:50:42;;;;;;;2.90;2.70;;;19.00;25.50;;;;;;5008602;28;20037;-40
2021/04/14 06:53:22;;;;;;;2.80;2.60;;;19.00;25.50;;;;;;5006429;28;20040;-38
2021/04/14 06:55:58;;;;;;;2.50;2.30;;;19.00;25.60;;;;;;5005738;28;20211;-42
2021/04/14 06:58:44;;;;;;;3.03;2.58;;;19.00;25.70;;;;;;5006912;28;20599;-38
2021/04/14 07:01:18;;;;;;;2.47;2.28;;;18.90;25.70;;;;;;5027006;28;20045;-35
2021/04/14 07:03:53;;;;;;;2.58;2.38;;;18.80;25.80;;;;;;5022558;28;20076;-38
2021/04/14 07:06:22;;;;;;;2.72;2.50;;;18.80;25.80;;;;;;5026573;28;20029;-35
2021/04/14 07:09:05;;;;;;;2.50;2.30;;;18.80;25.90;;;;;;5029133;28;20055;-35
2021/04/14 07:11:31;;;;;;;2.40;2.20;;;18.80;25.90;;;;;;5030135;28;20540;-36
2021/04/14 07:13:58;;;;;;;2.72;2.53;;;18.60;25.90;;;;;;5029263;28;20029;-35
2021/04/14 07:16:47;;;;;;;2.50;2.30;;;18.60;26.10;;;;;;5032385;28;20042;-34
2021/04/14 07:19:35;;;;;;;2.28;2.08;;;18.70;26.00;;;;;;5026778;28;20033;-36
2021/04/14 07:22:29;;;;;;;2.33;2.13;;;18.60;26.00;;;;;;5026059;28;20029;-37
2021/04/14 07:25:21;;;;;;;2.72;2.05;;;18.70;26.00;;;;;;5024164;28;20317;-41
2021/04/14 07:28:15;;;;;;;3.55;2.17;;;18.70;26.10;;;;;;5013991;28;20052;-35
2021/04/14 07:30:56;;;;;;;2.90;2.22;;;18.80;25.90;;;;;;5033929;28;20578;-36
2021/04/14 07:33:28;;;;;;;2.00;1.80;;;18.70;26.00;;;;;;5022763;28;20040;-44
2021/04/14 07:36:06;;;;;;;2.20;2.00;;;18.50;26.10;;;;;;5025703;28;20048;-34
2021/04/14 07:38:41;;;;;;;2.20;2.00;;;18.50;26.20;;;;;;5020528;28;20025;-34
2021/04/14 07:41:24;;;;;;;2.28;1.70;;;18.60;26.20;;;;;;5024378;28;20039;-35
2021/04/14 07:44:01;;;;;;;2.10;1.90;;;18.50;26.30;;;;;;5024692;28;20033;-35
2021/04/14 07:46:28;;;;;;;1.85;1.75;;;18.50;26.20;;;;;;5026346;28;20028;-33
2021/04/14 07:48:56;;;;;;;2.42;1.80;;;18.50;26.30;;;;;;5032333;28;20033;-35
2021/04/14 07:51:23;;;;;;;2.40;1.98;;;18.60;26.20;;;;;;5023832;28;20056;-35
2021/04/14 07:54:04;;;;;;;2.42;1.80;;;18.50;26.20;;;;;;5025675;28;22353;-33
2021/04/14 07:56:40;;;;;;;1.88;1.77;;;18.40;26.30;;;;;;5021298;28;20026;-33
2021/04/14 07:59:09;;;;;;;2.10;1.70;;;18.50;26.30;;;;;;5028044;28;20060;-36
2021/04/14 08:01:37;;;;;;;2.33;1.85;;;18.60;26.30;;;;;;5024822;28;20075;-39
2021/04/14 08:04:41;;;;;;;1.83;1.58;;;18.60;26.30;;;;;;5024334;28;20168;-34
2021/04/14 08:07:18;;;;;;;2.00;1.90;;;18.60;26.20;;;;;;4947339;28;20380;-38
2021/04/14 08:09:54;;;;;;;1.90;1.70;;;18.60;26.20;;;;;;5018517;28;20505;-36
2021/04/14 08:12:32;;;;;;;1.77;1.60;;;18.60;26.20;;;;;;5027915;28;20029;-37
2021/04/14 08:15:15;;;;;;;1.90;1.70;;;18.60;26.30;;;;;;5028405;28;20056;-38
2021/04/14 08:17:46;;;;;;;2.63;1.85;;;18.70;26.20;;;;;;5033759;28;20576;-35
2021/04/14 08:20:26;;;;;;;1.50;1.40;;;18.80;26.20;;;;;;5030035;28;20497;-34
2021/04/14 08:22:52;;;;;;;1.73;1.63;;;18.60;26.30;;;;;;5033802;28;20036;-27
2021/04/14 08:25:30;;;;;;;1.92;1.80;;;18.60;26.40;;;;;;5027172;28;20029;-34
2021/04/14 08:27:57;;;;;;;1.58;1.38;;;18.60;26.20;;;;;;5028582;28;20025;-36
2021/04/14 08:30:24;;;;;;;2.53;1.70;;;18.70;26.30;;;;;;5025601;28;20120;-38
2021/04/14 08:32:53;;;;;;;2.05;1.55;;;18.60;26.10;;;;;;5027538;28;20155;-34
2021/04/14 08:35:36;;;;;;;2.58;1.77;;;18.70;26.10;;;;;;5027012;28;20044;-31
2021/04/14 08:38:12;;;;;;;2.05;1.75;;;18.60;26.10;;;;;;5027477;28;20032;-36
2021/04/14 08:40:52;;;;;;;1.88;1.58;;;18.70;26.20;;;;;;5024431;28;20141;-38
2021/04/14 08:43:38;;;;;;;1.75;1.60;;;18.80;25.90;;;;;;5016644;28;20022;-34
2021/04/14 08:46:11;;;;;;;2.17;1.50;;;18.60;26.10;;;;;;5028449;28;20085;-34
2021/04/14 08:48:38;;;;;;;1.80;1.52;;;18.60;26.30;;;;;;5045238;28;20036;-33
2021/04/14 08:51:04;;;;;;;2.42;1.58;;;18.50;26.20;;;;;;5028125;28;21741;-34
2021/04/14 08:53:43;;;;;;;2.75;1.90;;;18.70;26.00;;;;;;5032251;28;20135;-36
2021/04/14 08:56:11;;;;;;;2.67;1.45;;;18.60;26.00;;;;;;5034082;28;20021;-38
2021/04/14 08:58:36;;;;;;;1.97;1.53;;;18.70;26.00;;;;;;5022347;28;20037;-32
2021/04/14 09:01:03;;;;;;;2.25;1.58;;;18.80;25.90;;;;;;5030297;28;20030;-36
2021/04/14 09:03:36;;;;;;;1.88;1.60;;;18.80;26.00;;;;;;5036780;28;20033;-30
2021/04/14 09:06:02;;;;;;;2.00;1.45;;;18.60;26.10;;;;;;5032295;28;20017;-34
2021/04/14 09:08:33;;;;;;;2.58;1.40;;;18.60;26.10;;;;;;5033227;28;20033;-33
2021/04/14 09:11:05;;;;;;;1.77;1.48;;;18.70;26.20;;;;;;5033245;28;20036;-37
2021/04/14 09:13:32;;;;;;;1.67;1.30;;;18.70;26.20;;;;;;5027302;28;20030;-34
2021/04/14 09:16:01;;;;;;;1.52;1.30;;;18.80;26.00;;;;;;5023027;28;20017;-32
2021/04/14 09:18:42;;;;;;;2.05;1.20;;;18.60;26.20;;;;;;5027361;28;20049;-37
2021/04/14 09:21:22;;;;;;;1.40;1.30;;;18.60;26.30;;;;;;5028750;28;20021;-34
2021/04/14 09:23:58;;;;;;;2.00;1.38;;;18.60;26.20;;;;;;5030418;28;20598;-33
2021/04/14 09:26:37;;;;;;;1.50;1.25;;;18.60;26.30;;;;;;5042218;28;20025;-35
2021/04/14 09:29:20;;;;;;;1.60;1.33;;;18.60;26.40;;;;;;5041393;28;20548;-35
2021/04/14 09:31:51;;;;;;;1.60;1.50;;;18.50;26.20;;;;;;5034926;28;20401;-35
2021/04/14 09:34:35;;;;;;;1.85;1.30;;;18.80;25.90;;;;;;5024169;28;20033;-35
2021/04/14 09:37:27;;;;;;;1.80;1.20;;;18.70;26.10;;;;;;5038665;28;20029;-36
2021/04/14 09:39:53;;;;;;;1.77;1.17;;;18.60;26.40;;;;;;5031811;28;20082;-37
2021/04/14 09:42:24;;;;;;;1.40;1.10;;;18.60;26.20;;;;;;5029798;28;20697;-36
2021/04/14 09:44:54;;;;;;;2.80;1.30;;;18.50;26.30;;;;;;5040705;28;20021;-36
2021/04/14 09:47:28;;;;;;;1.60;1.23;;;18.50;26.30;;;;;;5039342;28;20057;-35
2021/04/14 09:49:57;;;;;;;1.40;1.10;;;18.40;26.30;;;;;;5031317;28;20018;-34
2021/04/14 09:52:31;;;;;;;1.77;1.10;;;18.30;26.50;;;;;;5042265;28;20029;-38
2021/04/14 09:55:33;;;;;;;1.85;1.10;;;18.50;26.40;;;;;;5037439;28;20658;-34
2021/04/14 09:58:06;;;;;;;1.35;0.80;;;18.70;25.90;;;;;;5026036;28;20091;-35
2021/04/14 10:00:38;;;;;;;1.60;1.10;;;18.70;26.10;;;;;;5044465;28;20009;-37
2021/04/14 10:03:20;;;;;;;1.20;1.10;;;18.70;26.10;;;;;;5039681;28;20754;-41
2021/04/14 10:05:46;;;;;;;2.28;1.23;;;18.70;26.00;;;;;;5043096;28;20017;-36
2021/04/14 10:08:16;;;;;;;1.15;1.00;;;18.80;25.90;;;;;;5042940;28;20550;-40
2021/04/14 10:10:47;;;;;;;2.17;1.20;;;18.80;25.60;;;;;;5039377;28;20496;-39
2021/04/14 10:13:18;;;;;;;1.10;1.00;;;18.90;25.60;;;;;;5041254;28;20029;-38
2021/04/14 10:15:46;;;;;;;1.60;1.20;;;18.90;25.60;;;;;;5041060;28;20485;-34
2021/04/14 10:18:19;;;;;;;1.20;0.85;;;18.80;25.60;;;;;;5043630;28;20021;-38
2021/04/14 10:20:45;;;;;;;2.17;1.00;;;18.70;25.50;;;;;;5041378;28;20064;-35
2021/04/14 10:23:17;;;;;;;1.45;1.00;;;18.70;25.40;;;;;;5037795;28;20047;-35
2021/04/14 10:25:43;;;;;;;1.00;1.00;;;18.70;25.50;;;;;;5041723;28;20379;-39
2021/04/14 10:28:15;;;;;;;2.08;0.80;;;18.60;25.30;;;;;;5038767;28;20036;-35
2021/04/14 10:31:08;;;;;;;1.40;1.00;;;18.40;25.50;;;;;;5028312;28;20034;-36
2021/04/14 10:33:34;;;;;;;1.52;0.95;;;18.40;25.80;;;;;;5019970;28;20552;-33
2021/04/14 10:36:30;;;;;;;1.52;0.82;;;18.40;25.90;;;;;;5042430;28;20079;-34
2021/04/14 10:39:07;;;;;;;0.93;0.68;;;18.50;25.90;;;;;;5025310;28;20133;-43
2021/04/14 10:41:33;;;;;;;1.10;1.00;;;18.50;25.90;;;;;;5045402;28;20025;-37
2021/04/14 10:43:59;;;;;;;1.13;0.85;;;18.60;25.90;;;;;;5037835;28;20035;-38
2021/04/14 10:46:31;;;;;;;2.05;0.90;;;18.70;25.90;;;;;;5041111;28;20667;-32
2021/04/14 10:49:03;;;;;;;1.20;0.85;;;18.60;25.90;;;;;;5037017;28;20025;-37
2021/04/14 10:51:46;;;;;;;0.80;0.80;;;18.70;26.00;;;;;;5037439;28;20094;-39
2021/04/14 10:54:13;;;;;;;0.80;0.80;;;18.80;26.00;;;;;;5030361;28;20021;-38
2021/04/14 10:56:39;;;;;;;1.25;1.00;;;18.80;25.90;;;;;;5036829;28;20060;-37
2021/04/14 10:59:14;;;;;;;1.17;0.93;;;18.80;25.80;;;;;;5033954;28;20029;-37
2021/04/14 11:01:46;;;;;;;1.02;0.90;;;18.80;25.80;;;;;;5038713;28;20071;-36
2021/04/14 11:04:32;;;;;;;1.00;0.90;;;18.70;25.80;;;;;;5036753;28;20032;-37
2021/04/14 11:07:03;;;;;;;0.80;0.80;;;18.70;25.80;;;;;;5034995;28;20111;-34
2021/04/14 11:09:36;;;;;;;1.98;0.90;;;18.60;25.90;;;;;;5036865;28;20022;-35
2021/04/14 11:12:07;;;;;;;0.80;0.80;;;18.40;26.10;;;;;;5044143;28;20020;-37
2021/04/14 11:14:38;;;;;;;2.25;0.85;;;18.60;26.40;;;;;;5036774;28;20404;-35
2021/04/14 11:17:05;;;;;;;1.45;1.00;;;18.70;26.40;;;;;;5029063;28;20400;-34
2021/04/14 11:19:31;;;;;;;1.52;0.95;;;18.80;26.60;;;;;;5029528;28;20415;-37
2021/04/14 11:22:15;;;;;;;1.73;1.00;;;18.90;25.80;;;;;;5041538;28;20025;-35
2021/04/14 11:24:49;;;;;;;1.85;0.80;;;18.80;25.90;;;;;;5028216;28;20049;-32
2021/04/14 11:27:31;;;;;;;0.95;0.73;;;18.70;26.00;;;;;;5030965;28;20028;-40
2021/04/14 11:30:06;;;;;;;1.35;0.85;;;18.60;25.90;;;;;;5034703;28;20033;-35
2021/04/14 11:32:32;;;;;;;1.50;0.90;;;18.60;25.80;;;;;;5038556;28;20076;-36
2021/04/14 11:35:05;;;;;;;1.00;0.60;;;18.70;25.70;;;;;;5040858;28;20060;-35
2021/04/14 11:37:36;;;;;;;1.30;0.90;;;18.70;25.60;;;;;;5041041;28;20155;-37
2021/04/14 11:40:13;;;;;;;1.00;0.80;;;18.70;25.70;;;;;;5042120;28;20026;-32
2021/04/14 11:43:06;;;;;;;1.15;0.85;;;18.70;25.70;;;;;;5046206;28;20025;-35
2021/04/14 11:45:37;;;;;;;1.48;0.90;;;18.60;25.50;;;;;;5035511;28;20556;-34
2021/04/14 11:48:16;;;;;;;1.25;0.70;;;18.70;25.60;;;;;;5046775;28;20051;-37
2021/04/14 11:50:46;;;;;;;0.95;0.90;;;18.60;25.60;;;;;;5045060;28;20032;-37
2021/04/14 11:53:32;;;;;;;0.70;0.70;;;18.70;25.50;;;;;;5047582;28;20044;-37
2021/04/14 11:56:01;;;;;;;1.45;0.90;;;18.70;25.40;;;;;;5043755;28;20048;-40
2021/04/14 11:58:45;;;;;;;1.25;0.90;;;18.70;25.40;;;;;;5041345;28;20017;-36
2021/04/14 12:01:22;;;;;;;0.95;0.70;;;18.50;25.50;;;;;;5045478;28;20033;-36
2021/04/14 12:03:48;;;;;;;0.80;0.80;;;18.50;25.50;;;;;;5045357;28;20064;-36
2021/04/14 12:06:14;;;;;;;0.80;0.80;;;18.50;25.60;;;;;;5040297;28;20033;-39
2021/04/14 12:08:40;;;;;;;0.73;0.73;;;18.50;25.50;;;;;;5046744;28;20025;-35
2021/04/14 12:11:15;;;;;;;0.63;0.60;;;18.40;25.40;;;;;;5047017;28;20443;-36
2021/04/14 12:13:41;;;;;;;0.98;0.80;;;18.50;25.50;;;;;;5040451;28;20063;-36
2021/04/14 12:16:06;;;;;;;0.82;0.73;;;18.50;25.50;;;;;;5042387;28;20036;-37
2021/04/14 12:18:32;;;;;;;0.70;0.70;;;18.60;25.40;;;;;;5040929;28;20060;-35
2021/04/14 12:20:58;;;;;;;1.05;0.80;;;18.60;25.20;;;;;;5039438;28;20021;-37
2021/04/14 12:23:23;;;;;;;0.63;0.60;;;18.60;25.30;;;;;;5046689;28;20104;-40
2021/04/14 12:25:49;;;;;;;1.20;0.73;;;18.50;25.40;;;;;;5046667;28;20032;-36
2021/04/14 12:28:14;;;;;;;0.80;0.70;;;18.60;25.20;;;;;;5040891;28;20025;-36
2021/04/14 12:30:40;;;;;;;0.60;0.60;;;18.50;25.30;;;;;;5038613;28;20041;-39
2021/04/14 12:33:05;;;;;;;0.85;0.85;;;18.50;25.30;;;;;;5042827;28;20029;-34
2021/04/14 12:35:31;;;;;;;1.13;0.70;;;18.50;25.20;;;;;;5041770;28;20493;-34
2021/04/14 12:37:58;;;;;;;0.93;0.70;;;18.40;25.30;;;;;;5049280;28;20028;-38
2021/04/14 12:40:23;;;;;;;1.48;0.70;;;18.40;25.50;;;;;;5043903;28;20040;-35
2021/04/14 12:42:49;;;;;;;0.70;0.70;;;18.40;25.40;;;;;;5050041;28;20576;-36
2021/04/14 12:45:47;;;;;;;1.13;0.80;;;18.40;25.40;;;;;;5044631;28;20021;-39
2021/04/14 12:48:14;;;;;;;;;;;18.40;25.50;;;;;;5049765;28;20037;-35
2021/04/14 12:50:40;;;;;;;0.77;0.77;;;18.50;25.40;;;;;;5043336;28;19916;-37
2021/04/14 12:53:07;;;;;;;0.70;0.70;;;18.50;25.50;;;;;;5044883;28;20559;-35
2021/04/14 12:55:47;;;;;;;0.60;0.60;;;18.60;25.40;;;;;;5043206;28;20505;-36
2021/04/14 12:58:27;;;;;;;0.80;0.80;;;18.60;25.50;;;;;;5042852;28;20061;-38
2021/04/14 13:00:53;;;;;;;0.82;0.82;;;18.70;25.60;;;;;;5042909;28;20040;-36
2021/04/14 13:03:45;;;;;;;1.08;0.90;;;18.70;25.40;;;;;;5044655;28;20020;-36
2021/04/14 13:06:18;;;;;;;1.10;0.80;;;18.70;25.50;;;;;;5044782;28;20025;-35
2021/04/14 13:08:45;;;;;;;0.90;0.77;;;18.70;25.50;;;;;;5048440;28;20025;-36